createdAt,value
2019-03-20T00:04:33.977Z,3.54
2019-03-20T00:09:37.409Z,3.50
2019-03-20T00:14:40.825Z,3.40
2019-03-20T00:19:44.249Z,3.40
2019-03-20T00:24:47.651Z,3.47
2019-03-20T00:29:51.684Z,3.49
2019-03-20T00:35:00.719Z,3.48
2019-03-20T00:40:00.379Z,3.55
2019-03-20T00:45:04.873Z,3.53
2019-03-20T00:50:11.572Z,3.49
2019-03-20T00:55:15.954Z,3.46
2019-03-20T01:00:25.447Z,3.44
2019-03-20T01:05:28.853Z,3.42
2019-03-20T01:10:32.276Z,3.40
2019-03-20T01:15:36.779Z,3.38
2019-03-20T01:20:40.210Z,3.36
2019-03-20T01:25:43.567Z,3.37
2019-03-20T01:30:46.979Z,3.34
2019-03-20T01:35:50.392Z,3.36
2019-03-20T01:40:53.816Z,3.33
2019-03-20T01:45:57.267Z,3.26
2019-03-20T01:51:18.236Z,3.19
2019-03-20T01:56:21.659Z,3.21
2019-03-20T02:01:25.089Z,3.18
2019-03-20T02:06:28.580Z,3.17
2019-03-20T02:11:32.010Z,3.11
2019-03-20T02:16:35.501Z,3.05
2019-03-20T02:21:38.924Z,3.09
2019-03-20T02:26:42.460Z,3.09
2019-03-20T02:31:45.868Z,3.06
2019-03-20T02:36:49.310Z,2.98
2019-03-20T02:41:52.766Z,2.96
2019-03-20T02:46:56.222Z,2.89
2019-03-20T02:51:59.651Z,2.87
2019-03-20T02:57:03.075Z,2.82
2019-03-20T03:02:06.479Z,2.80
2019-03-20T03:07:09.912Z,2.73
2019-03-20T03:12:13.331Z,2.67
2019-03-20T03:17:16.785Z,2.66
2019-03-20T03:22:20.212Z,2.62
2019-03-20T03:27:24.024Z,2.56
2019-03-20T03:32:27.551Z,2.59
2019-03-20T03:37:30.997Z,2.56
2019-03-20T03:42:34.512Z,2.58
2019-03-20T03:47:37.954Z,2.59
2019-03-20T03:52:41.425Z,2.65
2019-03-20T03:57:45.286Z,2.66
2019-03-20T04:02:48.706Z,2.67
2019-03-20T04:07:52.100Z,2.72
2019-03-20T04:12:55.537Z,2.74
2019-03-20T04:17:58.949Z,2.68
2019-03-20T04:23:02.396Z,2.54
2019-03-20T04:28:05.959Z,2.51
2019-03-20T04:33:09.386Z,2.41
2019-03-20T04:38:12.828Z,2.33
2019-03-20T04:43:16.243Z,2.31
2019-03-20T04:48:19.679Z,2.45
2019-03-20T04:53:23.086Z,2.46
2019-03-20T04:58:26.559Z,2.42
2019-03-20T05:03:29.982Z,2.37
2019-03-20T05:08:33.408Z,2.36
2019-03-20T05:13:36.832Z,2.30
2019-03-20T05:18:40.251Z,2.34
2019-03-20T05:23:43.682Z,2.39
2019-03-20T05:28:47.183Z,2.14
2019-03-20T05:33:50.691Z,2.16
2019-03-20T05:38:54.197Z,2.19
2019-03-20T05:43:57.648Z,2.12
2019-03-20T05:49:01.139Z,2.09
2019-03-20T05:54:04.572Z,2.07
2019-03-20T05:59:08.099Z,2.13
2019-03-20T06:04:11.532Z,2.08
2019-03-20T06:09:14.980Z,2.12
2019-03-20T06:14:18.395Z,2.18
2019-03-20T06:19:21.811Z,2.33
2019-03-20T06:24:25.233Z,2.47
2019-03-20T06:29:28.647Z,2.57
2019-03-20T06:34:32.062Z,2.65
2019-03-20T06:39:35.487Z,2.73
2019-03-20T06:44:38.894Z,2.69
2019-03-20T06:49:42.370Z,2.80
2019-03-20T06:54:45.870Z,2.88
2019-03-20T06:59:52.342Z,2.97
2019-03-20T07:05:14.214Z,3.06
2019-03-20T07:10:26.482Z,3.14
2019-03-20T07:15:30.170Z,3.20
2019-03-20T07:20:33.592Z,3.31
2019-03-20T07:25:37.009Z,3.48
2019-03-20T07:30:40.426Z,3.72
2019-03-20T07:35:43.859Z,4.00
2019-03-20T07:40:47.291Z,4.38
2019-03-20T07:45:51.712Z,5.12
2019-03-20T07:50:55.184Z,5.64
2019-03-20T07:55:58.689Z,6.37
2019-03-20T08:01:02.237Z,6.77
2019-03-20T08:06:05.670Z,7.19
2019-03-20T08:11:09.095Z,7.90
2019-03-20T08:16:13.245Z,7.99
2019-03-20T08:21:16.597Z,8.51
2019-03-20T08:26:20.024Z,9.15
2019-03-20T08:31:23.469Z,9.41
2019-03-20T08:36:26.868Z,9.54
2019-03-20T08:41:30.292Z,9.60
2019-03-20T08:46:33.726Z,9.69
2019-03-20T08:51:37.167Z,10.05
2019-03-20T08:56:40.607Z,10.59
2019-03-20T09:01:44.482Z,11.08
2019-03-20T09:06:47.934Z,11.42
2019-03-20T09:11:51.348Z,11.78
2019-03-20T09:16:54.774Z,12.11
2019-03-20T09:21:58.203Z,12.16
2019-03-20T09:27:01.625Z,12.33
2019-03-20T09:32:05.084Z,12.65
2019-03-20T09:37:08.499Z,12.86
2019-03-20T09:42:11.912Z,13.04
2019-03-20T09:47:15.327Z,13.43
2019-03-20T09:52:18.754Z,13.63
2019-03-20T09:57:22.182Z,14.17
2019-03-20T10:02:25.626Z,14.35
2019-03-20T10:07:29.049Z,14.46
2019-03-20T10:12:32.522Z,14.73
2019-03-20T10:17:35.972Z,14.64
2019-03-20T10:22:39.691Z,14.80
2019-03-20T10:27:48.087Z,15.13
2019-03-20T10:32:51.650Z,15.15
2019-03-20T10:37:55.098Z,15.18
2019-03-20T10:42:58.668Z,15.45
2019-03-20T10:48:02.103Z,15.36
2019-03-20T10:53:06.308Z,15.40
2019-03-20T10:58:09.706Z,15.30
2019-03-20T11:03:13.126Z,14.88
2019-03-20T11:08:16.564Z,15.11
2019-03-20T11:13:20.135Z,15.12
2019-03-20T11:18:23.558Z,15.01
2019-03-20T11:23:26.962Z,15.17
2019-03-20T11:28:30.397Z,15.15
2019-03-20T11:33:33.810Z,15.07
2019-03-20T11:38:37.258Z,15.07
2019-03-20T11:43:40.693Z,15.14
2019-03-20T11:48:44.218Z,15.18
2019-03-20T11:53:47.658Z,15.17
2019-03-20T11:58:51.095Z,15.18
2019-03-20T12:03:54.524Z,15.20
2019-03-20T12:08:58.023Z,15.27
2019-03-20T12:14:01.388Z,15.05
2019-03-20T12:19:04.948Z,14.98
2019-03-20T12:24:08.435Z,15.06
2019-03-20T12:29:12.029Z,15.02
2019-03-20T12:34:15.441Z,14.84
2019-03-20T12:39:18.869Z,14.75
2019-03-20T12:44:22.305Z,14.77
2019-03-20T12:49:25.746Z,14.86
2019-03-20T12:54:29.181Z,14.69
2019-03-20T12:59:32.628Z,14.53
2019-03-20T13:04:36.047Z,14.40
2019-03-20T13:09:39.491Z,14.49
2019-03-20T13:14:42.914Z,14.54
2019-03-20T13:19:46.355Z,14.68
2019-03-20T13:24:49.769Z,14.72
2019-03-20T13:29:53.196Z,14.76
2019-03-20T13:34:56.627Z,14.63
2019-03-20T13:40:00.339Z,14.37
2019-03-20T13:45:05.727Z,14.33
2019-03-20T13:50:11.864Z,14.24
2019-03-20T13:55:16.350Z,14.33
2019-03-20T14:00:24.094Z,14.20
2019-03-20T14:05:27.538Z,14.20
2019-03-20T14:10:31.720Z,14.22
2019-03-20T14:15:35.200Z,14.29
2019-03-20T14:20:38.624Z,14.26
2019-03-20T14:25:42.060Z,14.26
2019-03-20T14:30:46.090Z,14.22
2019-03-20T14:35:49.514Z,14.30
2019-03-20T14:40:52.912Z,14.31
2019-03-20T14:45:56.338Z,14.15
2019-03-20T14:50:59.813Z,14.08
2019-03-20T14:56:03.324Z,14.09
2019-03-20T15:01:06.831Z,14.21
2019-03-20T15:06:10.266Z,14.14
2019-03-20T15:11:13.693Z,14.06
2019-03-20T15:16:17.140Z,13.95
2019-03-20T15:21:20.632Z,13.90
2019-03-20T15:26:24.210Z,13.78
2019-03-20T15:31:27.655Z,13.71
2019-03-20T15:36:31.207Z,13.69
2019-03-20T15:41:34.757Z,13.53
2019-03-20T15:46:38.188Z,13.49
2019-03-20T15:51:41.700Z,13.38
2019-03-20T15:56:45.154Z,13.34
2019-03-20T16:01:48.739Z,13.27
2019-03-20T16:06:52.235Z,13.29
2019-03-20T16:11:55.646Z,13.28
2019-03-20T16:16:59.077Z,13.30
2019-03-20T16:22:02.565Z,13.25
2019-03-20T16:27:06.264Z,13.19
2019-03-20T16:32:09.693Z,13.24
2019-03-20T16:37:13.180Z,13.25
2019-03-20T16:42:16.606Z,13.21
2019-03-20T16:47:20.044Z,13.23
2019-03-20T16:52:23.460Z,13.18
2019-03-20T16:57:26.965Z,13.12
2019-03-20T17:02:30.399Z,13.10
2019-03-20T17:07:33.803Z,12.98
2019-03-20T17:12:37.227Z,12.87
2019-03-20T17:17:40.644Z,12.78
2019-03-20T17:22:44.149Z,12.65
2019-03-20T17:27:48.275Z,12.57
2019-03-20T17:32:51.742Z,12.42
2019-03-20T17:37:55.192Z,12.27
2019-03-20T17:42:58.626Z,12.08
2019-03-20T17:48:02.115Z,11.87
2019-03-20T17:53:06.177Z,11.76
2019-03-20T17:58:09.620Z,11.58
2019-03-20T18:03:13.135Z,11.38
2019-03-20T18:08:17.596Z,11.18
2019-03-20T18:13:21.110Z,10.97
2019-03-20T18:18:24.537Z,10.78
2019-03-20T18:23:27.973Z,10.60
2019-03-20T18:28:31.468Z,10.39
2019-03-20T18:33:34.897Z,10.23
2019-03-20T18:38:38.310Z,10.04
2019-03-20T18:43:42.254Z,9.88
2019-03-20T18:48:45.681Z,9.70
2019-03-20T18:53:49.122Z,9.59
2019-03-20T18:58:52.573Z,9.54
2019-03-20T19:03:56.066Z,9.51
2019-03-20T19:08:59.705Z,9.51
2019-03-20T19:14:03.437Z,9.52
2019-03-20T19:19:06.916Z,9.55
2019-03-20T19:24:10.456Z,9.51
2019-03-20T19:29:13.850Z,9.51
2019-03-20T19:34:17.376Z,9.50
2019-03-20T19:39:20.804Z,9.50
2019-03-20T19:44:24.294Z,9.50
2019-03-20T19:49:27.730Z,9.48
2019-03-20T19:54:31.177Z,9.49
2019-03-20T19:59:35.631Z,9.48
2019-03-20T20:04:39.268Z,9.47
2019-03-20T20:09:42.798Z,9.44
2019-03-20T20:14:46.446Z,9.41
2019-03-20T20:19:49.867Z,9.42
2019-03-20T20:24:53.316Z,9.46
2019-03-20T20:29:56.827Z,9.43
2019-03-20T20:35:00.372Z,9.47
2019-03-20T20:40:05.131Z,9.50
2019-03-20T20:45:12.379Z,9.49
2019-03-20T20:50:17.232Z,9.51
2019-03-20T20:55:24.521Z,9.52
2019-03-20T21:00:28.334Z,9.52
2019-03-20T21:05:31.775Z,9.50
2019-03-20T21:10:35.217Z,9.49
2019-03-20T21:15:40.472Z,9.48
2019-03-20T21:20:44.567Z,9.48
2019-03-20T21:25:48.946Z,9.49
2019-03-20T21:31:01.438Z,9.52
2019-03-20T21:36:27.735Z,9.52
2019-03-20T21:41:34.250Z,9.54
2019-03-20T21:46:52.265Z,9.54
2019-03-20T21:51:55.718Z,9.54
2019-03-20T21:57:02.203Z,9.54
2019-03-20T22:02:29.574Z,9.56
2019-03-20T22:07:32.982Z,9.54
2019-03-20T22:12:51.543Z,9.53
2019-03-20T22:18:32.425Z,9.50
2019-03-20T22:23:55.507Z,9.49
2019-03-20T22:29:22.357Z,9.51
2019-03-20T22:34:43.943Z,9.51
2019-03-20T22:40:16.333Z,9.51
2019-03-20T22:45:57.918Z,9.53
2019-03-20T22:51:19.463Z,9.52
2019-03-20T22:56:47.083Z,9.54
2019-03-20T23:01:56.669Z,9.52
2019-03-20T23:07:00.085Z,9.52
2019-03-20T23:12:06.353Z,9.55
2019-03-20T23:17:09.944Z,9.54
2019-03-20T23:22:13.387Z,9.54
2019-03-20T23:27:23.477Z,9.53
2019-03-20T23:32:26.933Z,9.54
2019-03-20T23:37:30.370Z,9.55
2019-03-20T23:42:33.788Z,9.55
2019-03-20T23:47:40.255Z,9.57
2019-03-20T23:52:43.690Z,9.55
2019-03-20T23:57:47.141Z,9.55
